sensor_id;sensor_type;location;lat;lon;timestamp;temperature;humidity
43185;DHT22;28803;52.308;19.096;2023-08-08T00:00:48;12.50;99.90
43185;DHT22;28803;52.308;19.096;2023-08-08T00:03:34;12.40;99.90
43185;DHT22;28803;52.308;19.096;2023-08-08T00:06:02;12.40;99.90
43185;DHT22;28803;52.308;19.096;2023-08-08T00:08:29;12.40;99.90
43185;DHT22;28803;52.308;19.096;2023-08-08T00:10:56;12.40;99.90
43185;DHT22;28803;52.308;19.096;2023-08-08T00:13:23;12.40;99.90
43185;DHT22;28803;52.308;19.096;2023-08-08T00:15:51;12.40;99.90
43185;DHT22;28803;52.308;19.096;2023-08-08T00:18:18;12.40;99.90
43185;DHT22;28803;52.308;19.096;2023-08-08T00:20:46;12.30;99.90
43185;DHT22;28803;52.308;19.096;2023-08-08T00:23:13;12.20;99.90
43185;DHT22;28803;52.308;19.096;2023-08-08T00:25:44;12.20;99.90
43185;DHT22;28803;52.308;19.096;2023-08-08T00:28:17;12.10;99.90
43185;DHT22;28803;52.308;19.096;2023-08-08T00:30:44;12.10;99.90
43185;DHT22;28803;52.308;19.096;2023-08-08T00:33:12;12.10;99.90
43185;DHT22;28803;52.308;19.096;2023-08-08T00:35:39;12.10;99.90
43185;DHT22;28803;52.308;19.096;2023-08-08T00:38:06;12.00;99.90
43185;DHT22;28803;52.308;19.096;2023-08-08T00:40:34;12.00;99.90
43185;DHT22;28803;52.308;19.096;2023-08-08T00:43:01;12.00;99.90
43185;DHT22;28803;52.308;19.096;2023-08-08T00:45:29;12.10;99.90
43185;DHT22;28803;52.308;19.096;2023-08-08T00:47:56;12.00;99.90
43185;DHT22;28803;52.308;19.096;2023-08-08T00:50:24;12.00;99.90
43185;DHT22;28803;52.308;19.096;2023-08-08T00:52:51;12.00;99.90
43185;DHT22;28803;52.308;19.096;2023-08-08T00:55:19;12.00;99.90
43185;DHT22;28803;52.308;19.096;2023-08-08T00:57:46;11.90;99.90
43185;DHT22;28803;52.308;19.096;2023-08-08T01:00:14;11.90;99.90
43185;DHT22;28803;52.308;19.096;2023-08-08T01:05:10;11.90;98.40
43185;DHT22;28803;52.308;19.096;2023-08-08T01:08:05;11.90;97.60
43185;DHT22;28803;52.308;19.096;2023-08-08T01:10:38;11.80;96.40
43185;DHT22;28803;52.308;19.096;2023-08-08T01:13:12;11.80;96.30
43185;DHT22;28803;52.308;19.096;2023-08-08T01:15:41;11.80;96.10
43185;DHT22;28803;52.308;19.096;2023-08-08T01:18:09;11.70;95.00
43185;DHT22;28803;52.308;19.096;2023-08-08T01:20:38;11.70;94.30
43185;DHT22;28803;52.308;19.096;2023-08-08T01:25:52;11.70;93.30
43185;DHT22;28803;52.308;19.096;2023-08-08T01:28:23;11.70;91.10
43185;DHT22;28803;52.308;19.096;2023-08-08T01:30:51;11.70;89.00
43185;DHT22;28803;52.308;19.096;2023-08-08T01:33:18;11.70;88.50
43185;DHT22;28803;52.308;19.096;2023-08-08T01:36:19;11.70;87.30
43185;DHT22;28803;52.308;19.096;2023-08-08T01:38:48;11.60;84.50
43185;DHT22;28803;52.308;19.096;2023-08-08T01:41:18;11.60;84.30
43185;DHT22;28803;52.308;19.096;2023-08-08T01:43:47;11.70;84.20
43185;DHT22;28803;52.308;19.096;2023-08-08T01:46:16;11.70;82.60
43185;DHT22;28803;52.308;19.096;2023-08-08T01:48:46;11.60;80.90
43185;DHT22;28803;52.308;19.096;2023-08-08T01:51:14;11.60;82.00
43185;DHT22;28803;52.308;19.096;2023-08-08T01:53:42;11.60;85.30
43185;DHT22;28803;52.308;19.096;2023-08-08T01:56:09;11.60;85.20
43185;DHT22;28803;52.308;19.096;2023-08-08T01:58:36;11.60;82.60
43185;DHT22;28803;52.308;19.096;2023-08-08T02:01:04;11.60;80.90
43185;DHT22;28803;52.308;19.096;2023-08-08T02:03:31;11.60;80.30
43185;DHT22;28803;52.308;19.096;2023-08-08T02:05:58;11.60;81.40
43185;DHT22;28803;52.308;19.096;2023-08-08T02:08:26;11.50;81.20
43185;DHT22;28803;52.308;19.096;2023-08-08T02:10:53;11.50;83.00
43185;DHT22;28803;52.308;19.096;2023-08-08T02:13:20;11.50;87.20
43185;DHT22;28803;52.308;19.096;2023-08-08T02:15:48;11.50;90.20
43185;DHT22;28803;52.308;19.096;2023-08-08T02:18:15;11.50;91.20
43185;DHT22;28803;52.308;19.096;2023-08-08T02:20:42;11.50;91.70
43185;DHT22;28803;52.308;19.096;2023-08-08T02:23:16;11.50;91.40
43185;DHT22;28803;52.308;19.096;2023-08-08T02:25:43;11.50;91.10
43185;DHT22;28803;52.308;19.096;2023-08-08T02:28:10;11.50;91.20
43185;DHT22;28803;52.308;19.096;2023-08-08T02:30:38;11.50;90.10
43185;DHT22;28803;52.308;19.096;2023-08-08T02:33:05;11.50;91.10
43185;DHT22;28803;52.308;19.096;2023-08-08T02:35:33;11.50;92.00
43185;DHT22;28803;52.308;19.096;2023-08-08T02:38:00;11.50;92.20
43185;DHT22;28803;52.308;19.096;2023-08-08T02:40:27;11.60;90.90
43185;DHT22;28803;52.308;19.096;2023-08-08T02:42:55;11.60;90.70
43185;DHT22;28803;52.308;19.096;2023-08-08T02:45:22;11.70;89.40
43185;DHT22;28803;52.308;19.096;2023-08-08T02:47:49;11.60;82.90
43185;DHT22;28803;52.308;19.096;2023-08-08T02:50:17;11.60;81.60
43185;DHT22;28803;52.308;19.096;2023-08-08T02:52:44;11.60;82.10
43185;DHT22;28803;52.308;19.096;2023-08-08T02:55:12;11.60;87.00
43185;DHT22;28803;52.308;19.096;2023-08-08T02:57:39;11.70;88.70
43185;DHT22;28803;52.308;19.096;2023-08-08T03:00:07;11.80;80.90
43185;DHT22;28803;52.308;19.096;2023-08-08T03:02:35;11.80;80.70
43185;DHT22;28803;52.308;19.096;2023-08-08T03:05:03;11.80;77.40
43185;DHT22;28803;52.308;19.096;2023-08-08T03:07:31;11.80;74.60
43185;DHT22;28803;52.308;19.096;2023-08-08T03:09:58;11.70;70.00
43185;DHT22;28803;52.308;19.096;2023-08-08T03:12:25;11.80;70.00
43185;DHT22;28803;52.308;19.096;2023-08-08T03:14:53;11.70;67.50
43185;DHT22;28803;52.308;19.096;2023-08-08T03:17:20;11.70;68.30
43185;DHT22;28803;52.308;19.096;2023-08-08T03:19:48;11.70;69.50
43185;DHT22;28803;52.308;19.096;2023-08-08T03:22:15;11.70;70.50
43185;DHT22;28803;52.308;19.096;2023-08-08T03:24:43;11.70;74.80
43185;DHT22;28803;52.308;19.096;2023-08-08T03:27:10;11.70;76.80
43185;DHT22;28803;52.308;19.096;2023-08-08T03:32:05;11.90;73.10
43185;DHT22;28803;52.308;19.096;2023-08-08T03:34:33;12.00;68.20
43185;DHT22;28803;52.308;19.096;2023-08-08T03:37:00;12.20;56.30
43185;DHT22;28803;52.308;19.096;2023-08-08T03:39:28;12.20;52.00
43185;DHT22;28803;52.308;19.096;2023-08-08T03:41:55;12.30;52.10
43185;DHT22;28803;52.308;19.096;2023-08-08T03:44:24;12.30;47.30
43185;DHT22;28803;52.308;19.096;2023-08-08T03:46:51;12.40;40.80
43185;DHT22;28803;52.308;19.096;2023-08-08T03:49:25;12.50;34.10
43185;DHT22;28803;52.308;19.096;2023-08-08T03:51:53;12.50;34.30
43185;DHT22;28803;52.308;19.096;2023-08-08T03:54:20;12.50;28.90
43185;DHT22;28803;52.308;19.096;2023-08-08T03:56:47;12.50;26.70
43185;DHT22;28803;52.308;19.096;2023-08-08T03:59:14;12.60;17.20
43185;DHT22;28803;52.308;19.096;2023-08-08T04:01:42;12.60;17.60
43185;DHT22;28803;52.308;19.096;2023-08-08T04:04:09;12.60;16.40
43185;DHT22;28803;52.308;19.096;2023-08-08T04:06:36;12.70;8.10
43185;DHT22;28803;52.308;19.096;2023-08-08T04:09:04;12.70;3.60
43185;DHT22;28803;52.308;19.096;2023-08-08T04:11:31;12.70;5.30
43185;DHT22;28803;52.308;19.096;2023-08-08T04:13:58;12.80;1.00
43185;DHT22;28803;52.308;19.096;2023-08-08T04:16:25;12.80;1.00
43185;DHT22;28803;52.308;19.096;2023-08-08T04:18:53;12.80;1.00
43185;DHT22;28803;52.308;19.096;2023-08-08T04:21:20;12.80;1.00
43185;DHT22;28803;52.308;19.096;2023-08-08T04:23:47;12.80;1.00
43185;DHT22;28803;52.308;19.096;2023-08-08T04:26:14;12.80;1.00
43185;DHT22;28803;52.308;19.096;2023-08-08T04:28:42;12.80;1.00
43185;DHT22;28803;52.308;19.096;2023-08-08T04:31:09;12.70;1.00
43185;DHT22;28803;52.308;19.096;2023-08-08T04:33:37;12.80;1.00
43185;DHT22;28803;52.308;19.096;2023-08-08T04:36:04;12.80;1.00
43185;DHT22;28803;52.308;19.096;2023-08-08T04:38:31;12.80;1.00
43185;DHT22;28803;52.308;19.096;2023-08-08T04:40:58;12.80;1.00
43185;DHT22;28803;52.308;19.096;2023-08-08T04:43:26;12.80;1.00
43185;DHT22;28803;52.308;19.096;2023-08-08T04:45:55;12.90;1.00
43185;DHT22;28803;52.308;19.096;2023-08-08T04:48:22;12.90;1.00
43185;DHT22;28803;52.308;19.096;2023-08-08T04:50:49;13.00;1.00
43185;DHT22;28803;52.308;19.096;2023-08-08T04:53:17;13.10;1.00
43185;DHT22;28803;52.308;19.096;2023-08-08T04:55:44;13.10;1.00
43185;DHT22;28803;52.308;19.096;2023-08-08T04:58:11;13.30;1.00
43185;DHT22;28803;52.308;19.096;2023-08-08T05:00:38;13.30;1.00
43185;DHT22;28803;52.308;19.096;2023-08-08T05:03:06;13.40;1.00
43185;DHT22;28803;52.308;19.096;2023-08-08T05:05:33;13.40;1.00
43185;DHT22;28803;52.308;19.096;2023-08-08T05:08:01;13.50;1.00
43185;DHT22;28803;52.308;19.096;2023-08-08T05:10:28;13.50;1.00
43185;DHT22;28803;52.308;19.096;2023-08-08T05:12:57;13.50;1.00
43185;DHT22;28803;52.308;19.096;2023-08-08T05:15:24;13.70;1.00
43185;DHT22;28803;52.308;19.096;2023-08-08T05:17:52;13.70;1.00
43185;DHT22;28803;52.308;19.096;2023-08-08T05:20:21;13.90;1.00
43185;DHT22;28803;52.308;19.096;2023-08-08T05:22:49;13.90;1.00
43185;DHT22;28803;52.308;19.096;2023-08-08T05:25:16;14.10;1.00
43185;DHT22;28803;52.308;19.096;2023-08-08T05:27:43;14.20;1.00
43185;DHT22;28803;52.308;19.096;2023-08-08T05:30:11;14.20;1.00
43185;DHT22;28803;52.308;19.096;2023-08-08T05:32:38;14.20;1.00
43185;DHT22;28803;52.308;19.096;2023-08-08T05:35:06;14.20;1.00
43185;DHT22;28803;52.308;19.096;2023-08-08T05:37:33;14.20;1.00
43185;DHT22;28803;52.308;19.096;2023-08-08T05:40:00;14.40;1.00
43185;DHT22;28803;52.308;19.096;2023-08-08T05:42:28;14.50;1.00
43185;DHT22;28803;52.308;19.096;2023-08-08T05:44:56;14.50;1.00
43185;DHT22;28803;52.308;19.096;2023-08-08T05:47:23;14.60;99.90
43185;DHT22;28803;52.308;19.096;2023-08-08T05:49:51;14.90;99.90
43185;DHT22;28803;52.308;19.096;2023-08-08T05:52:19;14.90;99.90
43185;DHT22;28803;52.308;19.096;2023-08-08T05:54:46;15.00;99.90
43185;DHT22;28803;52.308;19.096;2023-08-08T05:57:13;15.00;99.90
43185;DHT22;28803;52.308;19.096;2023-08-08T05:59:40;15.00;99.90
43185;DHT22;28803;52.308;19.096;2023-08-08T06:02:08;15.00;99.90
43185;DHT22;28803;52.308;19.096;2023-08-08T06:04:35;15.10;99.90
43185;DHT22;28803;52.308;19.096;2023-08-08T06:07:03;15.10;99.90
43185;DHT22;28803;52.308;19.096;2023-08-08T06:09:33;14.90;99.90
43185;DHT22;28803;52.308;19.096;2023-08-08T06:12:00;14.90;99.90
43185;DHT22;28803;52.308;19.096;2023-08-08T06:14:28;14.70;99.90
43185;DHT22;28803;52.308;19.096;2023-08-08T06:16:55;14.60;99.90
43185;DHT22;28803;52.308;19.096;2023-08-08T06:19:22;14.70;99.90
43185;DHT22;28803;52.308;19.096;2023-08-08T06:21:50;14.90;99.90
43185;DHT22;28803;52.308;19.096;2023-08-08T06:24:17;14.90;99.90
43185;DHT22;28803;52.308;19.096;2023-08-08T06:26:45;15.00;99.90
43185;DHT22;28803;52.308;19.096;2023-08-08T06:29:12;15.90;99.90
43185;DHT22;28803;52.308;19.096;2023-08-08T06:31:41;16.00;99.90
43185;DHT22;28803;52.308;19.096;2023-08-08T06:34:08;16.30;46.60
43185;DHT22;28803;52.308;19.096;2023-08-08T06:36:36;16.40;36.50
43185;DHT22;28803;52.308;19.096;2023-08-08T06:39:04;16.50;1.00
43185;DHT22;28803;52.308;19.096;2023-08-08T06:41:33;16.40;1.00
43185;DHT22;28803;52.308;19.096;2023-08-08T06:46:27;16.30;1.00
43185;DHT22;28803;52.308;19.096;2023-08-08T06:48:55;16.40;1.00
43185;DHT22;28803;52.308;19.096;2023-08-08T06:51:26;16.50;1.00
43185;DHT22;28803;52.308;19.096;2023-08-08T06:53:53;16.70;1.00
43185;DHT22;28803;52.308;19.096;2023-08-08T06:56:21;16.80;99.90
43185;DHT22;28803;52.308;19.096;2023-08-08T06:58:48;16.70;99.90
43185;DHT22;28803;52.308;19.096;2023-08-08T07:01:16;16.70;99.90
43185;DHT22;28803;52.308;19.096;2023-08-08T07:03:43;16.50;99.90
43185;DHT22;28803;52.308;19.096;2023-08-08T07:06:11;16.60;99.90
43185;DHT22;28803;52.308;19.096;2023-08-08T07:08:38;16.70;99.90
43185;DHT22;28803;52.308;19.096;2023-08-08T07:11:09;16.90;99.90
43185;DHT22;28803;52.308;19.096;2023-08-08T07:13:36;17.00;99.90
43185;DHT22;28803;52.308;19.096;2023-08-08T07:16:04;17.80;99.90
43185;DHT22;28803;52.308;19.096;2023-08-08T07:18:31;18.10;99.90
43185;DHT22;28803;52.308;19.096;2023-08-08T07:20:59;18.60;99.90
43185;DHT22;28803;52.308;19.096;2023-08-08T07:23:27;18.00;90.00
43185;DHT22;28803;52.308;19.096;2023-08-08T07:25:56;18.10;98.20
43185;DHT22;28803;52.308;19.096;2023-08-08T07:28:23;18.00;68.80
43185;DHT22;28803;52.308;19.096;2023-08-08T07:30:50;18.00;78.80
43185;DHT22;28803;52.308;19.096;2023-08-08T07:33:17;18.00;14.00
43185;DHT22;28803;52.308;19.096;2023-08-08T07:35:45;18.40;1.00
43185;DHT22;28803;52.308;19.096;2023-08-08T07:38:12;18.50;1.00
43185;DHT22;28803;52.308;19.096;2023-08-08T07:40:40;18.40;1.00
43185;DHT22;28803;52.308;19.096;2023-08-08T07:43:08;18.60;1.00
43185;DHT22;28803;52.308;19.096;2023-08-08T07:45:35;18.70;1.00
43185;DHT22;28803;52.308;19.096;2023-08-08T07:48:03;18.90;1.00
43185;DHT22;28803;52.308;19.096;2023-08-08T07:50:31;19.80;17.80
43185;DHT22;28803;52.308;19.096;2023-08-08T07:52:58;20.10;1.00
43185;DHT22;28803;52.308;19.096;2023-08-08T07:55:26;20.70;1.00
43185;DHT22;28803;52.308;19.096;2023-08-08T07:57:54;22.30;20.60
43185;DHT22;28803;52.308;19.096;2023-08-08T08:00:21;24.20;99.90
43185;DHT22;28803;52.308;19.096;2023-08-08T08:02:48;25.10;1.00
43185;DHT22;28803;52.308;19.096;2023-08-08T08:05:16;25.00;1.00
43185;DHT22;28803;52.308;19.096;2023-08-08T08:07:44;25.60;1.00
43185;DHT22;28803;52.308;19.096;2023-08-08T08:10:12;24.70;99.90
43185;DHT22;28803;52.308;19.096;2023-08-08T08:12:42;24.40;99.90
43185;DHT22;28803;52.308;19.096;2023-08-08T08:15:10;23.10;99.90
43185;DHT22;28803;52.308;19.096;2023-08-08T08:17:38;22.30;1.00
43185;DHT22;28803;52.308;19.096;2023-08-08T08:20:05;22.40;1.00
43185;DHT22;28803;52.308;19.096;2023-08-08T08:22:38;22.10;1.00
43185;DHT22;28803;52.308;19.096;2023-08-08T08:25:06;22.20;1.00
43185;DHT22;28803;52.308;19.096;2023-08-08T08:27:38;22.70;1.00
43185;DHT22;28803;52.308;19.096;2023-08-08T08:30:07;23.00;1.00
43185;DHT22;28803;52.308;19.096;2023-08-08T08:32:38;22.90;1.00
43185;DHT22;28803;52.308;19.096;2023-08-08T08:35:07;23.30;1.00
43185;DHT22;28803;52.308;19.096;2023-08-08T08:37:34;23.90;1.00
43185;DHT22;28803;52.308;19.096;2023-08-08T08:40:02;25.20;99.90
43185;DHT22;28803;52.308;19.096;2023-08-08T08:42:32;25.20;99.90
43185;DHT22;28803;52.308;19.096;2023-08-08T08:45:02;24.30;99.90
43185;DHT22;28803;52.308;19.096;2023-08-08T08:47:31;24.30;99.90
43185;DHT22;28803;52.308;19.096;2023-08-08T08:50:00;27.10;1.00
43185;DHT22;28803;52.308;19.096;2023-08-08T08:52:29;27.20;1.00
43185;DHT22;28803;52.308;19.096;2023-08-08T08:54:57;28.30;1.00
43185;DHT22;28803;52.308;19.096;2023-08-08T08:57:24;29.10;99.90
43185;DHT22;28803;52.308;19.096;2023-08-08T08:59:52;29.90;99.90
43185;DHT22;28803;52.308;19.096;2023-08-08T09:02:19;28.50;99.90
43185;DHT22;28803;52.308;19.096;2023-08-08T09:04:46;26.40;87.80
43185;DHT22;28803;52.308;19.096;2023-08-08T09:07:14;25.20;1.00
43185;DHT22;28803;52.308;19.096;2023-08-08T09:09:43;24.10;99.90
43185;DHT22;28803;52.308;19.096;2023-08-08T09:12:11;24.00;1.00
43185;DHT22;28803;52.308;19.096;2023-08-08T09:14:40;24.50;99.90
43185;DHT22;28803;52.308;19.096;2023-08-08T09:17:12;25.30;99.90
43185;DHT22;28803;52.308;19.096;2023-08-08T09:19:45;25.50;1.00
43185;DHT22;28803;52.308;19.096;2023-08-08T09:22:14;25.80;1.00
43185;DHT22;28803;52.308;19.096;2023-08-08T09:24:42;26.20;1.00
43185;DHT22;28803;52.308;19.096;2023-08-08T09:27:09;28.30;1.00
43185;DHT22;28803;52.308;19.096;2023-08-08T09:29:38;29.20;1.00
43185;DHT22;28803;52.308;19.096;2023-08-08T09:32:08;28.00;1.00
43185;DHT22;28803;52.308;19.096;2023-08-08T09:34:36;27.90;6.20
43185;DHT22;28803;52.308;19.096;2023-08-08T09:37:03;27.10;49.00
43185;DHT22;28803;52.308;19.096;2023-08-08T09:39:34;25.60;1.00
43185;DHT22;28803;52.308;19.096;2023-08-08T09:42:02;24.60;1.00
43185;DHT22;28803;52.308;19.096;2023-08-08T09:44:31;24.70;1.00
43185;DHT22;28803;52.308;19.096;2023-08-08T09:47:02;25.60;99.90
43185;DHT22;28803;52.308;19.096;2023-08-08T09:49:31;25.60;99.90
43185;DHT22;28803;52.308;19.096;2023-08-08T09:52:01;25.00;99.90
43185;DHT22;28803;52.308;19.096;2023-08-08T09:54:30;24.50;99.90
43185;DHT22;28803;52.308;19.096;2023-08-08T09:56:58;24.20;99.90
43185;DHT22;28803;52.308;19.096;2023-08-08T09:59:29;23.60;99.90
43185;DHT22;28803;52.308;19.096;2023-08-08T10:01:57;23.60;99.90
43185;DHT22;28803;52.308;19.096;2023-08-08T10:04:25;23.00;1.00
43185;DHT22;28803;52.308;19.096;2023-08-08T10:06:53;22.10;99.90
43185;DHT22;28803;52.308;19.096;2023-08-08T10:09:20;21.50;99.90
43185;DHT22;28803;52.308;19.096;2023-08-08T10:11:48;21.10;1.00
43185;DHT22;28803;52.308;19.096;2023-08-08T10:14:16;21.10;99.90
43185;DHT22;28803;52.308;19.096;2023-08-08T10:16:43;20.70;99.90
43185;DHT22;28803;52.308;19.096;2023-08-08T10:19:13;20.20;99.90
43185;DHT22;28803;52.308;19.096;2023-08-08T10:21:43;20.10;99.90
43185;DHT22;28803;52.308;19.096;2023-08-08T10:24:11;19.60;99.90
43185;DHT22;28803;52.308;19.096;2023-08-08T10:26:56;19.60;99.90
43185;DHT22;28803;52.308;19.096;2023-08-08T10:29:26;19.10;55.30
43185;DHT22;28803;52.308;19.096;2023-08-08T10:34:46;18.70;99.90
43185;DHT22;28803;52.308;19.096;2023-08-08T10:37:17;18.50;99.90
43185;DHT22;28803;52.308;19.096;2023-08-08T10:42:20;18.70;65.20
43185;DHT22;28803;52.308;19.096;2023-08-08T10:44:57;19.00;1.00
43185;DHT22;28803;52.308;19.096;2023-08-08T10:47:35;19.30;1.00
43185;DHT22;28803;52.308;19.096;2023-08-08T10:50:05;19.60;1.00
43185;DHT22;28803;52.308;19.096;2023-08-08T10:52:50;20.10;99.90
43185;DHT22;28803;52.308;19.096;2023-08-08T10:55:30;20.30;1.00
43185;DHT22;28803;52.308;19.096;2023-08-08T10:58:03;20.50;1.00
43185;DHT22;28803;52.308;19.096;2023-08-08T11:00:39;20.80;1.00
43185;DHT22;28803;52.308;19.096;2023-08-08T11:03:07;20.60;1.00
43185;DHT22;28803;52.308;19.096;2023-08-08T11:05:37;20.30;1.00
43185;DHT22;28803;52.308;19.096;2023-08-08T11:08:06;20.50;1.00
43185;DHT22;28803;52.308;19.096;2023-08-08T11:10:36;20.40;1.00
43185;DHT22;28803;52.308;19.096;2023-08-08T11:13:05;20.60;1.00
43185;DHT22;28803;52.308;19.096;2023-08-08T11:15:34;20.80;1.00
43185;DHT22;28803;52.308;19.096;2023-08-08T11:18:02;20.70;99.90
43185;DHT22;28803;52.308;19.096;2023-08-08T11:20:32;20.50;1.00
43185;DHT22;28803;52.308;19.096;2023-08-08T11:23:00;20.30;1.00
43185;DHT22;28803;52.308;19.096;2023-08-08T11:25:30;19.90;1.00
43185;DHT22;28803;52.308;19.096;2023-08-08T11:27:58;19.70;99.90
43185;DHT22;28803;52.308;19.096;2023-08-08T11:30:30;19.70;99.90
43185;DHT22;28803;52.308;19.096;2023-08-08T11:32:59;19.60;99.90
43185;DHT22;28803;52.308;19.096;2023-08-08T11:35:30;19.60;99.90
43185;DHT22;28803;52.308;19.096;2023-08-08T11:37:58;20.00;1.00
43185;DHT22;28803;52.308;19.096;2023-08-08T11:40:28;20.60;1.00
43185;DHT22;28803;52.308;19.096;2023-08-08T11:42:57;20.90;99.90
43185;DHT22;28803;52.308;19.096;2023-08-08T11:45:24;21.10;99.90
43185;DHT22;28803;52.308;19.096;2023-08-08T11:47:55;21.50;99.90
43185;DHT22;28803;52.308;19.096;2023-08-08T11:50:25;21.50;99.90
43185;DHT22;28803;52.308;19.096;2023-08-08T11:52:54;21.20;99.90
43185;DHT22;28803;52.308;19.096;2023-08-08T11:55:28;21.10;99.90
43185;DHT22;28803;52.308;19.096;2023-08-08T11:57:56;21.30;99.90
43185;DHT22;28803;52.308;19.096;2023-08-08T12:00:27;21.60;99.90
43185;DHT22;28803;52.308;19.096;2023-08-08T12:02:56;21.70;99.90
43185;DHT22;28803;52.308;19.096;2023-08-08T12:05:26;21.90;88.10
43185;DHT22;28803;52.308;19.096;2023-08-08T12:07:53;21.70;99.90
43185;DHT22;28803;52.308;19.096;2023-08-08T12:10:22;21.30;72.60
43185;DHT22;28803;52.308;19.096;2023-08-08T12:12:54;20.70;99.90
43185;DHT22;28803;52.308;19.096;2023-08-08T12:15:22;18.30;49.70
43185;DHT22;28803;52.308;19.096;2023-08-08T12:17:50;18.00;99.90
43185;DHT22;28803;52.308;19.096;2023-08-08T12:20:17;16.00;99.90
43185;DHT22;28803;52.308;19.096;2023-08-08T12:22:44;15.50;99.90
43185;DHT22;28803;52.308;19.096;2023-08-08T12:25:12;15.00;1.00
43185;DHT22;28803;52.308;19.096;2023-08-08T12:27:39;14.80;1.00
43185;DHT22;28803;52.308;19.096;2023-08-08T12:30:08;15.30;1.00
43185;DHT22;28803;52.308;19.096;2023-08-08T12:32:35;15.30;1.00
43185;DHT22;28803;52.308;19.096;2023-08-08T12:35:03;15.70;1.00
43185;DHT22;28803;52.308;19.096;2023-08-08T12:37:30;16.10;1.00
43185;DHT22;28803;52.308;19.096;2023-08-08T12:39:58;16.60;1.00
43185;DHT22;28803;52.308;19.096;2023-08-08T12:42:25;17.20;1.00
43185;DHT22;28803;52.308;19.096;2023-08-08T12:44:53;17.90;99.90
43185;DHT22;28803;52.308;19.096;2023-08-08T12:47:20;18.60;99.90
43185;DHT22;28803;52.308;19.096;2023-08-08T12:49:48;19.10;99.90
43185;DHT22;28803;52.308;19.096;2023-08-08T12:52:15;19.50;66.30
43185;DHT22;28803;52.308;19.096;2023-08-08T12:54:43;19.90;1.00
43185;DHT22;28803;52.308;19.096;2023-08-08T12:57:10;20.20;1.00
43185;DHT22;28803;52.308;19.096;2023-08-08T12:59:38;20.40;99.90
43185;DHT22;28803;52.308;19.096;2023-08-08T13:02:05;20.60;99.90
43185;DHT22;28803;52.308;19.096;2023-08-08T13:04:32;20.50;99.90
43185;DHT22;28803;52.308;19.096;2023-08-08T13:07:00;20.40;99.90
43185;DHT22;28803;52.308;19.096;2023-08-08T13:09:27;20.60;99.90
43185;DHT22;28803;52.308;19.096;2023-08-08T13:11:54;20.70;99.90
43185;DHT22;28803;52.308;19.096;2023-08-08T13:14:22;20.50;99.90
43185;DHT22;28803;52.308;19.096;2023-08-08T13:16:49;20.50;99.90
43185;DHT22;28803;52.308;19.096;2023-08-08T13:19:17;20.50;99.90
43185;DHT22;28803;52.308;19.096;2023-08-08T13:21:48;20.50;99.90
43185;DHT22;28803;52.308;19.096;2023-08-08T13:24:17;20.30;99.90
43185;DHT22;28803;52.308;19.096;2023-08-08T13:26:44;20.40;99.90
43185;DHT22;28803;52.308;19.096;2023-08-08T13:29:13;20.50;99.90
43185;DHT22;28803;52.308;19.096;2023-08-08T13:31:40;20.50;99.90
43185;DHT22;28803;52.308;19.096;2023-08-08T13:34:08;20.60;99.90
43185;DHT22;28803;52.308;19.096;2023-08-08T13:36:36;20.50;99.90
43185;DHT22;28803;52.308;19.096;2023-08-08T13:39:03;20.30;99.90
43185;DHT22;28803;52.308;19.096;2023-08-08T13:41:31;20.30;99.90
43185;DHT22;28803;52.308;19.096;2023-08-08T13:43:59;20.50;99.90
43185;DHT22;28803;52.308;19.096;2023-08-08T13:46:26;20.80;99.90
43185;DHT22;28803;52.308;19.096;2023-08-08T13:48:54;20.70;99.90
43185;DHT22;28803;52.308;19.096;2023-08-08T13:51:21;20.30;1.00
43185;DHT22;28803;52.308;19.096;2023-08-08T13:53:48;19.50;1.00
43185;DHT22;28803;52.308;19.096;2023-08-08T13:56:16;18.70;99.90
43185;DHT22;28803;52.308;19.096;2023-08-08T13:58:44;16.50;99.90
43185;DHT22;28803;52.308;19.096;2023-08-08T14:01:11;16.20;99.90
43185;DHT22;28803;52.308;19.096;2023-08-08T14:03:39;15.50;99.90
43185;DHT22;28803;52.308;19.096;2023-08-08T14:06:07;15.10;1.00
43185;DHT22;28803;52.308;19.096;2023-08-08T14:08:34;14.90;1.00
43185;DHT22;28803;52.308;19.096;2023-08-08T14:11:01;15.50;1.00
43185;DHT22;28803;52.308;19.096;2023-08-08T14:13:29;15.40;1.00
43185;DHT22;28803;52.308;19.096;2023-08-08T14:15:56;15.70;1.00
43185;DHT22;28803;52.308;19.096;2023-08-08T14:18:23;16.00;1.00
43185;DHT22;28803;52.308;19.096;2023-08-08T14:20:51;16.20;1.00
43185;DHT22;28803;52.308;19.096;2023-08-08T14:23:18;16.50;1.00
43185;DHT22;28803;52.308;19.096;2023-08-08T14:25:45;17.30;1.00
43185;DHT22;28803;52.308;19.096;2023-08-08T14:28:13;18.40;99.90
43185;DHT22;28803;52.308;19.096;2023-08-08T14:30:40;19.10;99.90
43185;DHT22;28803;52.308;19.096;2023-08-08T14:33:08;20.10;1.00
43185;DHT22;28803;52.308;19.096;2023-08-08T14:35:35;20.10;1.00
43185;DHT22;28803;52.308;19.096;2023-08-08T14:38:03;19.60;99.90
43185;DHT22;28803;52.308;19.096;2023-08-08T14:40:30;18.90;99.90
43185;DHT22;28803;52.308;19.096;2023-08-08T14:43:01;18.40;1.00
43185;DHT22;28803;52.308;19.096;2023-08-08T14:45:28;17.70;99.90
43185;DHT22;28803;52.308;19.096;2023-08-08T14:47:57;17.20;1.00
43185;DHT22;28803;52.308;19.096;2023-08-08T14:50:24;16.40;99.90
43185;DHT22;28803;52.308;19.096;2023-08-08T14:52:51;16.10;99.90
43185;DHT22;28803;52.308;19.096;2023-08-08T14:55:18;15.80;99.90
43185;DHT22;28803;52.308;19.096;2023-08-08T14:57:46;15.70;99.90
43185;DHT22;28803;52.308;19.096;2023-08-08T15:00:13;15.60;99.90
43185;DHT22;28803;52.308;19.096;2023-08-08T15:02:41;15.40;99.90
43185;DHT22;28803;52.308;19.096;2023-08-08T15:05:08;15.30;99.90
43185;DHT22;28803;52.308;19.096;2023-08-08T15:07:36;15.00;1.00
43185;DHT22;28803;52.308;19.096;2023-08-08T15:10:03;14.90;1.00
43185;DHT22;28803;52.308;19.096;2023-08-08T15:12:31;15.10;1.00
43185;DHT22;28803;52.308;19.096;2023-08-08T15:14:58;15.60;1.00
43185;DHT22;28803;52.308;19.096;2023-08-08T15:17:26;16.20;1.00
43185;DHT22;28803;52.308;19.096;2023-08-08T15:19:54;16.80;1.00
43185;DHT22;28803;52.308;19.096;2023-08-08T15:22:21;17.40;99.90
43185;DHT22;28803;52.308;19.096;2023-08-08T15:24:49;17.80;99.90
43185;DHT22;28803;52.308;19.096;2023-08-08T15:27:16;17.90;99.90
43185;DHT22;28803;52.308;19.096;2023-08-08T15:29:44;17.90;99.90
43185;DHT22;28803;52.308;19.096;2023-08-08T15:32:12;17.90;99.90
43185;DHT22;28803;52.308;19.096;2023-08-08T15:34:39;17.90;99.90
43185;DHT22;28803;52.308;19.096;2023-08-08T15:37:06;17.80;99.90
43185;DHT22;28803;52.308;19.096;2023-08-08T15:39:33;17.70;99.90
43185;DHT22;28803;52.308;19.096;2023-08-08T15:42:02;17.60;99.90